sensor_id;sensor_type;location;lat;lon;timestamp;P1;durP1;ratioP1;P2;durP2;ratioP2
49978;SDS011;35869;50.990;6.962;2022-12-07T00:00:12;33.72;;;24.00;;
49978;SDS011;35869;50.990;6.962;2022-12-07T00:05:13;35.63;;;20.42;;
49978;SDS011;35869;50.990;6.962;2022-12-07T00:10:13;28.83;;;20.77;;
49978;SDS011;35869;50.990;6.962;2022-12-07T00:15:14;34.53;;;22.77;;
49978;SDS011;35869;50.990;6.962;2022-12-07T00:20:14;34.53;;;22.92;;
49978;SDS011;35869;50.990;6.962;2022-12-07T00:25:27;35.83;;;24.10;;
49978;SDS011;35869;50.990;6.962;2022-12-07T00:30:27;37.75;;;21.92;;
49978;SDS011;35869;50.990;6.962;2022-12-07T00:35:27;32.27;;;22.97;;
49978;SDS011;35869;50.990;6.962;2022-12-07T00:40:27;30.52;;;20.20;;
49978;SDS011;35869;50.990;6.962;2022-12-07T00:45:28;36.93;;;23.03;;
49978;SDS011;35869;50.990;6.962;2022-12-07T00:50:28;31.40;;;21.52;;
49978;SDS011;35869;50.990;6.962;2022-12-07T00:55:32;35.83;;;23.00;;
49978;SDS011;35869;50.990;6.962;2022-12-07T01:00:33;33.15;;;24.55;;
49978;SDS011;35869;50.990;6.962;2022-12-07T01:05:35;32.25;;;20.80;;
49978;SDS011;35869;50.990;6.962;2022-12-07T01:10:36;33.53;;;22.20;;
49978;SDS011;35869;50.990;6.962;2022-12-07T01:15:40;33.72;;;23.00;;
49978;SDS011;35869;50.990;6.962;2022-12-07T01:20:44;35.90;;;22.08;;
49978;SDS011;35869;50.990;6.962;2022-12-07T01:25:44;30.13;;;20.48;;
49978;SDS011;35869;50.990;6.962;2022-12-07T01:30:44;33.53;;;22.25;;
49978;SDS011;35869;50.990;6.962;2022-12-07T01:35:44;34.45;;;22.58;;
49978;SDS011;35869;50.990;6.962;2022-12-07T01:40:45;35.22;;;23.25;;
49978;SDS011;35869;50.990;6.962;2022-12-07T01:45:45;38.55;;;24.20;;
49978;SDS011;35869;50.990;6.962;2022-12-07T01:50:46;37.83;;;23.85;;
49978;SDS011;35869;50.990;6.962;2022-12-07T01:55:49;34.35;;;23.17;;
49978;SDS011;35869;50.990;6.962;2022-12-07T02:00:52;40.45;;;24.40;;
49978;SDS011;35869;50.990;6.962;2022-12-07T02:05:52;41.70;;;26.83;;
49978;SDS011;35869;50.990;6.962;2022-12-07T02:26:35;40.83;;;25.38;;
49978;SDS011;35869;50.990;6.962;2022-12-07T02:31:47;39.88;;;25.67;;
49978;SDS011;35869;50.990;6.962;2022-12-07T02:36:56;40.45;;;25.20;;
49978;SDS011;35869;50.990;6.962;2022-12-07T02:42:07;34.55;;;24.80;;
49978;SDS011;35869;50.990;6.962;2022-12-07T02:47:14;31.77;;;24.45;;
49978;SDS011;35869;50.990;6.962;2022-12-07T02:52:18;36.38;;;24.75;;
49978;SDS011;35869;50.990;6.962;2022-12-07T02:57:29;43.17;;;27.13;;
49978;SDS011;35869;50.990;6.962;2022-12-07T03:02:51;48.85;;;28.77;;
49978;SDS011;35869;50.990;6.962;2022-12-07T03:19:02;36.90;;;24.95;;
49978;SDS011;35869;50.990;6.962;2022-12-07T03:24:21;41.35;;;25.42;;
49978;SDS011;35869;50.990;6.962;2022-12-07T03:29:30;43.55;;;28.42;;
49978;SDS011;35869;50.990;6.962;2022-12-07T03:34:44;44.00;;;28.05;;
49978;SDS011;35869;50.990;6.962;2022-12-07T03:39:59;42.17;;;28.02;;
49978;SDS011;35869;50.990;6.962;2022-12-07T03:45:01;37.80;;;26.95;;
49978;SDS011;35869;50.990;6.962;2022-12-07T03:50:21;40.08;;;25.98;;
49978;SDS011;35869;50.990;6.962;2022-12-07T03:55:32;36.65;;;25.40;;
49978;SDS011;35869;50.990;6.962;2022-12-07T04:00:42;40.35;;;27.17;;
49978;SDS011;35869;50.990;6.962;2022-12-07T04:05:43;46.10;;;26.77;;
49978;SDS011;35869;50.990;6.962;2022-12-07T04:10:44;40.30;;;24.52;;
49978;SDS011;35869;50.990;6.962;2022-12-07T04:15:44;41.28;;;25.02;;
49978;SDS011;35869;50.990;6.962;2022-12-07T04:20:45;41.50;;;26.70;;
49978;SDS011;35869;50.990;6.962;2022-12-07T04:25:47;37.40;;;23.50;;
49978;SDS011;35869;50.990;6.962;2022-12-07T04:30:48;42.22;;;26.98;;
49978;SDS011;35869;50.990;6.962;2022-12-07T04:35:55;43.70;;;25.67;;
49978;SDS011;35869;50.990;6.962;2022-12-07T04:41:21;41.15;;;24.55;;
49978;SDS011;35869;50.990;6.962;2022-12-07T04:52:41;41.00;;;26.35;;
49978;SDS011;35869;50.990;6.962;2022-12-07T04:57:54;45.17;;;27.65;;
49978;SDS011;35869;50.990;6.962;2022-12-07T05:03:13;41.90;;;24.27;;
49978;SDS011;35869;50.990;6.962;2022-12-07T05:08:13;41.13;;;24.95;;
49978;SDS011;35869;50.990;6.962;2022-12-07T05:13:14;42.43;;;27.93;;
49978;SDS011;35869;50.990;6.962;2022-12-07T05:18:17;40.92;;;25.63;;
49978;SDS011;35869;50.990;6.962;2022-12-07T05:23:20;45.13;;;26.42;;
49978;SDS011;35869;50.990;6.962;2022-12-07T05:28:20;35.88;;;26.33;;
49978;SDS011;35869;50.990;6.962;2022-12-07T05:33:23;42.28;;;28.25;;
49978;SDS011;35869;50.990;6.962;2022-12-07T05:38:42;42.17;;;26.85;;
49978;SDS011;35869;50.990;6.962;2022-12-07T05:44:21;41.20;;;24.77;;
49978;SDS011;35869;50.990;6.962;2022-12-07T06:00:31;38.42;;;23.67;;
49978;SDS011;35869;50.990;6.962;2022-12-07T06:05:34;35.83;;;21.75;;
49978;SDS011;35869;50.990;6.962;2022-12-07T06:10:37;36.70;;;22.50;;
49978;SDS011;35869;50.990;6.962;2022-12-07T06:15:43;33.88;;;22.27;;
49978;SDS011;35869;50.990;6.962;2022-12-07T06:20:55;32.40;;;22.17;;
49978;SDS011;35869;50.990;6.962;2022-12-07T06:26:01;32.67;;;23.50;;
49978;SDS011;35869;50.990;6.962;2022-12-07T06:41:54;38.03;;;22.20;;
49978;SDS011;35869;50.990;6.962;2022-12-07T06:57:40;34.85;;;23.08;;
49978;SDS011;35869;50.990;6.962;2022-12-07T07:02:43;37.00;;;24.02;;
49978;SDS011;35869;50.990;6.962;2022-12-07T07:07:46;36.38;;;24.63;;
49978;SDS011;35869;50.990;6.962;2022-12-07T07:12:46;43.58;;;24.80;;
49978;SDS011;35869;50.990;6.962;2022-12-07T07:17:51;35.97;;;25.77;;
49978;SDS011;35869;50.990;6.962;2022-12-07T07:22:55;39.28;;;25.25;;
49978;SDS011;35869;50.990;6.962;2022-12-07T07:27:57;38.13;;;26.55;;
49978;SDS011;35869;50.990;6.962;2022-12-07T07:32:58;41.67;;;27.77;;
49978;SDS011;35869;50.990;6.962;2022-12-07T07:38:01;39.25;;;25.15;;
49978;SDS011;35869;50.990;6.962;2022-12-07T07:43:02;45.22;;;27.02;;
49978;SDS011;35869;50.990;6.962;2022-12-07T07:48:05;58.55;;;29.90;;
49978;SDS011;35869;50.990;6.962;2022-12-07T07:53:26;49.30;;;31.35;;
49978;SDS011;35869;50.990;6.962;2022-12-07T07:58:29;42.10;;;27.20;;
49978;SDS011;35869;50.990;6.962;2022-12-07T08:03:32;43.85;;;28.58;;
49978;SDS011;35869;50.990;6.962;2022-12-07T08:08:33;40.05;;;25.88;;
49978;SDS011;35869;50.990;6.962;2022-12-07T08:13:33;47.92;;;29.80;;
49978;SDS011;35869;50.990;6.962;2022-12-07T08:18:37;41.27;;;29.07;;
49978;SDS011;35869;50.990;6.962;2022-12-07T08:23:38;48.75;;;30.00;;
49978;SDS011;35869;50.990;6.962;2022-12-07T08:28:39;54.80;;;30.75;;
49978;SDS011;35869;50.990;6.962;2022-12-07T08:33:39;41.47;;;27.63;;
49978;SDS011;35869;50.990;6.962;2022-12-07T08:38:40;40.72;;;27.38;;
49978;SDS011;35869;50.990;6.962;2022-12-07T08:43:42;36.95;;;26.30;;
49978;SDS011;35869;50.990;6.962;2022-12-07T08:48:44;39.17;;;25.88;;
49978;SDS011;35869;50.990;6.962;2022-12-07T08:53:48;36.70;;;22.27;;
49978;SDS011;35869;50.990;6.962;2022-12-07T08:58:50;37.67;;;24.27;;
49978;SDS011;35869;50.990;6.962;2022-12-07T09:03:50;39.37;;;24.90;;
49978;SDS011;35869;50.990;6.962;2022-12-07T09:38:01;27.23;;;19.48;;
49978;SDS011;35869;50.990;6.962;2022-12-07T09:43:24;28.15;;;18.08;;
49978;SDS011;35869;50.990;6.962;2022-12-07T09:59:53;27.52;;;16.40;;
49978;SDS011;35869;50.990;6.962;2022-12-07T10:33:47;22.93;;;13.20;;
49978;SDS011;35869;50.990;6.962;2022-12-07T10:39:21;18.92;;;12.70;;
49978;SDS011;35869;50.990;6.962;2022-12-07T10:44:26;19.08;;;12.98;;
49978;SDS011;35869;50.990;6.962;2022-12-07T11:30:21;16.67;;;10.20;;
49978;SDS011;35869;50.990;6.962;2022-12-07T11:41:06;15.38;;;9.63;;
49978;SDS011;35869;50.990;6.962;2022-12-07T11:46:11;12.75;;;7.80;;
49978;SDS011;35869;50.990;6.962;2022-12-07T11:51:24;16.00;;;8.55;;
49978;SDS011;35869;50.990;6.962;2022-12-07T11:56:26;14.05;;;8.55;;
49978;SDS011;35869;50.990;6.962;2022-12-07T12:06:31;12.82;;;7.90;;
49978;SDS011;35869;50.990;6.962;2022-12-07T12:29:02;20.52;;;7.82;;
49978;SDS011;35869;50.990;6.962;2022-12-07T12:39:40;13.73;;;7.95;;
49978;SDS011;35869;50.990;6.962;2022-12-07T12:45:21;14.05;;;8.80;;
49978;SDS011;35869;50.990;6.962;2022-12-07T13:34:55;18.80;;;11.93;;
49978;SDS011;35869;50.990;6.962;2022-12-07T14:08:36;15.82;;;10.38;;
49978;SDS011;35869;50.990;6.962;2022-12-07T14:25:33;22.13;;;10.52;;
49978;SDS011;35869;50.990;6.962;2022-12-07T15:16:16;21.60;;;12.20;;
49978;SDS011;35869;50.990;6.962;2022-12-07T15:21:19;10.55;;;7.65;;
49978;SDS011;35869;50.990;6.962;2022-12-07T15:26:20;12.10;;;7.17;;
49978;SDS011;35869;50.990;6.962;2022-12-07T15:36:44;5.57;;;3.33;;
49978;SDS011;35869;50.990;6.962;2022-12-07T15:47:55;6.05;;;3.80;;
49978;SDS011;35869;50.990;6.962;2022-12-07T15:59:06;8.77;;;4.60;;
49978;SDS011;35869;50.990;6.962;2022-12-07T16:15:57;11.20;;;8.27;;
49978;SDS011;35869;50.990;6.962;2022-12-07T16:20:58;15.82;;;8.95;;
49978;SDS011;35869;50.990;6.962;2022-12-07T16:26:26;10.77;;;8.73;;
49978;SDS011;35869;50.990;6.962;2022-12-07T16:31:28;18.00;;;10.00;;
49978;SDS011;35869;50.990;6.962;2022-12-07T16:36:28;13.15;;;9.35;;
49978;SDS011;35869;50.990;6.962;2022-12-07T16:41:29;13.67;;;8.97;;
49978;SDS011;35869;50.990;6.962;2022-12-07T16:46:36;18.25;;;10.23;;
49978;SDS011;35869;50.990;6.962;2022-12-07T16:51:40;17.77;;;12.52;;
49978;SDS011;35869;50.990;6.962;2022-12-07T16:56:41;18.40;;;10.60;;
49978;SDS011;35869;50.990;6.962;2022-12-07T17:01:42;16.10;;;10.60;;
49978;SDS011;35869;50.990;6.962;2022-12-07T17:11:43;18.48;;;10.73;;
49978;SDS011;35869;50.990;6.962;2022-12-07T17:21:44;15.32;;;9.48;;
49978;SDS011;35869;50.990;6.962;2022-12-07T17:26:45;19.15;;;11.02;;
49978;SDS011;35869;50.990;6.962;2022-12-07T17:31:46;18.38;;;11.65;;
49978;SDS011;35869;50.990;6.962;2022-12-07T17:36:47;24.52;;;13.45;;
49978;SDS011;35869;50.990;6.962;2022-12-07T17:41:48;17.37;;;11.90;;
49978;SDS011;35869;50.990;6.962;2022-12-07T17:46:51;18.92;;;11.85;;
49978;SDS011;35869;50.990;6.962;2022-12-07T17:51:52;22.60;;;14.15;;
49978;SDS011;35869;50.990;6.962;2022-12-07T17:56:55;15.27;;;12.15;;
49978;SDS011;35869;50.990;6.962;2022-12-07T18:01:58;18.63;;;13.02;;
49978;SDS011;35869;50.990;6.962;2022-12-07T18:07:04;19.30;;;13.32;;
49978;SDS011;35869;50.990;6.962;2022-12-07T18:12:05;23.13;;;15.30;;
49978;SDS011;35869;50.990;6.962;2022-12-07T18:17:05;21.40;;;14.57;;
49978;SDS011;35869;50.990;6.962;2022-12-07T18:22:05;21.67;;;15.35;;
49978;SDS011;35869;50.990;6.962;2022-12-07T18:27:06;23.53;;;15.27;;
49978;SDS011;35869;50.990;6.962;2022-12-07T18:32:06;22.27;;;15.50;;
49978;SDS011;35869;50.990;6.962;2022-12-07T18:37:06;27.50;;;16.75;;
49978;SDS011;35869;50.990;6.962;2022-12-07T18:42:06;25.40;;;17.15;;
49978;SDS011;35869;50.990;6.962;2022-12-07T18:47:09;21.63;;;15.60;;
49978;SDS011;35869;50.990;6.962;2022-12-07T18:52:09;22.83;;;15.18;;
49978;SDS011;35869;50.990;6.962;2022-12-07T18:57:10;28.88;;;16.83;;
49978;SDS011;35869;50.990;6.962;2022-12-07T19:02:12;25.67;;;15.13;;
49978;SDS011;35869;50.990;6.962;2022-12-07T19:07:15;19.65;;;14.07;;
49978;SDS011;35869;50.990;6.962;2022-12-07T19:12:16;20.70;;;15.35;;
49978;SDS011;35869;50.990;6.962;2022-12-07T19:17:16;21.98;;;15.93;;
49978;SDS011;35869;50.990;6.962;2022-12-07T19:22:17;29.85;;;15.82;;
49978;SDS011;35869;50.990;6.962;2022-12-07T19:27:19;21.40;;;14.80;;
49978;SDS011;35869;50.990;6.962;2022-12-07T19:32:20;25.90;;;15.43;;
49978;SDS011;35869;50.990;6.962;2022-12-07T19:37:20;19.83;;;14.07;;
49978;SDS011;35869;50.990;6.962;2022-12-07T19:42:21;18.75;;;13.68;;
49978;SDS011;35869;50.990;6.962;2022-12-07T19:47:22;19.23;;;13.80;;
49978;SDS011;35869;50.990;6.962;2022-12-07T19:52:22;21.17;;;14.48;;
49978;SDS011;35869;50.990;6.962;2022-12-07T19:57:22;20.98;;;14.07;;
49978;SDS011;35869;50.990;6.962;2022-12-07T20:02:22;23.55;;;15.25;;
49978;SDS011;35869;50.990;6.962;2022-12-07T20:07:22;22.08;;;14.20;;
49978;SDS011;35869;50.990;6.962;2022-12-07T20:12:23;21.92;;;14.80;;
49978;SDS011;35869;50.990;6.962;2022-12-07T20:17:23;28.50;;;16.38;;
49978;SDS011;35869;50.990;6.962;2022-12-07T20:22:23;28.25;;;16.88;;
49978;SDS011;35869;50.990;6.962;2022-12-07T20:27:23;26.02;;;16.45;;
49978;SDS011;35869;50.990;6.962;2022-12-07T20:32:24;29.20;;;18.08;;
49978;SDS011;35869;50.990;6.962;2022-12-07T20:37:24;25.00;;;16.90;;
49978;SDS011;35869;50.990;6.962;2022-12-07T20:42:24;25.80;;;16.75;;
49978;SDS011;35869;50.990;6.962;2022-12-07T20:47:24;28.80;;;17.42;;
49978;SDS011;35869;50.990;6.962;2022-12-07T20:52:25;25.80;;;17.05;;
49978;SDS011;35869;50.990;6.962;2022-12-07T20:57:25;22.90;;;15.40;;
49978;SDS011;35869;50.990;6.962;2022-12-07T21:02:33;27.63;;;16.83;;
49978;SDS011;35869;50.990;6.962;2022-12-07T21:07:36;23.30;;;14.13;;
49978;SDS011;35869;50.990;6.962;2022-12-07T21:12:52;23.33;;;15.23;;
49978;SDS011;35869;50.990;6.962;2022-12-07T21:17:52;20.80;;;14.35;;
49978;SDS011;35869;50.990;6.962;2022-12-07T21:22:55;24.20;;;15.27;;
49978;SDS011;35869;50.990;6.962;2022-12-07T21:27:55;30.13;;;16.70;;
49978;SDS011;35869;50.990;6.962;2022-12-07T21:33:01;23.92;;;15.45;;
49978;SDS011;35869;50.990;6.962;2022-12-07T21:38:01;30.13;;;16.58;;
49978;SDS011;35869;50.990;6.962;2022-12-07T21:48:34;28.45;;;17.15;;
49978;SDS011;35869;50.990;6.962;2022-12-07T21:53:35;27.80;;;17.10;;
49978;SDS011;35869;50.990;6.962;2022-12-07T21:58:36;24.70;;;17.10;;
49978;SDS011;35869;50.990;6.962;2022-12-07T22:03:37;27.50;;;17.63;;
49978;SDS011;35869;50.990;6.962;2022-12-07T22:08:37;24.83;;;17.08;;
49978;SDS011;35869;50.990;6.962;2022-12-07T22:13:37;23.20;;;15.88;;
49978;SDS011;35869;50.990;6.962;2022-12-07T22:18:38;30.98;;;17.02;;
49978;SDS011;35869;50.990;6.962;2022-12-07T22:23:38;27.90;;;16.57;;
49978;SDS011;35869;50.990;6.962;2022-12-07T22:28:39;25.17;;;16.52;;
49978;SDS011;35869;50.990;6.962;2022-12-07T22:33:40;26.13;;;15.88;;
49978;SDS011;35869;50.990;6.962;2022-12-07T22:38:41;28.10;;;16.37;;
49978;SDS011;35869;50.990;6.962;2022-12-07T22:43:42;26.25;;;16.85;;
49978;SDS011;35869;50.990;6.962;2022-12-07T22:48:42;23.80;;;17.40;;
49978;SDS011;35869;50.990;6.962;2022-12-07T22:53:42;21.15;;;15.40;;
49978;SDS011;35869;50.990;6.962;2022-12-07T22:58:42;32.75;;;17.10;;
49978;SDS011;35869;50.990;6.962;2022-12-07T23:03:43;27.17;;;17.47;;
49978;SDS011;35869;50.990;6.962;2022-12-07T23:08:44;25.17;;;15.52;;
49978;SDS011;35869;50.990;6.962;2022-12-07T23:13:45;29.33;;;17.90;;
49978;SDS011;35869;50.990;6.962;2022-12-07T23:18:45;21.85;;;15.63;;
49978;SDS011;35869;50.990;6.962;2022-12-07T23:23:45;22.27;;;15.02;;
49978;SDS011;35869;50.990;6.962;2022-12-07T23:28:45;26.98;;;16.33;;
49978;SDS011;35869;50.990;6.962;2022-12-07T23:33:46;24.80;;;14.73;;
49978;SDS011;35869;50.990;6.962;2022-12-07T23:38:47;23.40;;;14.47;;
49978;SDS011;35869;50.990;6.962;2022-12-07T23:43:49;23.95;;;15.13;;
49978;SDS011;35869;50.990;6.962;2022-12-07T23:48:50;21.00;;;13.83;;
49978;SDS011;35869;50.990;6.962;2022-12-07T23:53:54;24.08;;;13.88;;
49978;SDS011;35869;50.990;6.962;2022-12-07T23:58:55;25.10;;;15.93;;
